Time;durP1;ratioP1;P1;durP2;ratioP2;P2;SDS_P1;SDS_P2;PMS_P1;PMS_P2;Temp;Humidity;BMP_temperature;BMP_pressure;BME280_temperature;BME280_humidity;BME280_pressure;Samples;Min_cycle;Max_cycle;Signal;HPM_P1;HPM_P2
2021/12/25 00:02:09;;;;;;;109.63;41.25;;;10.10;99.90;;;;;;4973670;28;20031;-72
2021/12/25 00:04:35;;;;;;;65.68;24.45;;;10.10;99.90;;;;;;4973872;28;20453;-72
2021/12/25 00:07:02;;;;;;;80.60;29.42;;;10.10;99.90;;;;;;4973747;28;20045;-72
2021/12/25 00:09:27;;;;;;;82.78;29.70;;;10.10;99.90;;;;;;4973537;28;20366;-72
2021/12/25 00:11:54;;;;;;;76.07;28.40;;;10.10;99.90;;;;;;4971163;28;20034;-72
2021/12/25 00:14:22;;;;;;;56.33;20.13;;;10.00;99.90;;;;;;4973694;28;20023;-72
2021/12/25 00:16:48;;;;;;;29.55;12.02;;;10.00;99.90;;;;;;4973396;28;20084;-72
2021/12/25 00:19:14;;;;;;;75.45;29.30;;;10.00;99.90;;;;;;4973666;28;20026;-72
2021/12/25 00:21:40;;;;;;;92.85;33.83;;;10.10;99.90;;;;;;4973338;28;20019;-72
2021/12/25 00:24:06;;;;;;;73.22;28.75;;;10.10;99.90;;;;;;4973251;28;20033;-72
2021/12/25 00:26:57;;;;;;;54.38;20.15;;;10.20;99.90;;;;;;4973545;28;20023;-72
2021/12/25 00:31:55;;;;;;;64.78;23.92;;;10.20;99.90;;;;;;4973389;28;20026;-72
2021/12/25 00:34:23;;;;;;;77.18;26.77;;;10.20;99.90;;;;;;4980220;28;20528;-73
2021/12/25 00:36:50;;;;;;;83.15;27.88;;;10.20;99.90;;;;;;4973117;28;20015;-73
2021/12/25 00:39:16;;;;;;;71.90;27.60;;;10.10;99.90;;;;;;4973279;28;20027;-73
2021/12/25 00:41:42;;;;;;;23.67;10.48;;;10.20;99.90;;;;;;4973399;28;20038;-72
2021/12/25 00:44:08;;;;;;;31.55;13.13;;;10.20;99.90;;;;;;4971842;28;20656;-72
2021/12/25 00:46:33;;;;;;;27.48;11.75;;;10.10;99.90;;;;;;4970426;28;20512;-72
2021/12/25 00:48:59;;;;;;;29.40;12.27;;;10.10;99.90;;;;;;4972757;28;20125;-73
2021/12/25 00:51:25;;;;;;;33.47;17.17;;;10.00;99.90;;;;;;4972983;28;20057;-72
2021/12/25 00:53:51;;;;;;;62.88;28.73;;;10.00;99.90;;;;;;4972555;28;20049;-72
2021/12/25 00:56:17;;;;;;;97.07;42.33;;;9.90;99.90;;;;;;4972475;28;20519;-72
2021/12/25 00:58:43;;;;;;;133.90;61.65;;;9.90;99.90;;;;;;4972881;28;20030;-72
2021/12/25 01:01:08;;;;;;;156.98;71.55;;;9.80;99.90;;;;;;4972511;28;20023;-72
2021/12/25 01:03:35;;;;;;;162.48;73.05;;;9.70;99.90;;;;;;4972890;28;20524;-73
2021/12/25 01:06:00;;;;;;;192.10;88.75;;;9.70;99.90;;;;;;4971635;28;20476;-72
2021/12/25 01:08:26;;;;;;;421.98;186.38;;;9.60;99.90;;;;;;4972945;28;20462;-72
2021/12/25 01:10:52;;;;;;;295.23;130.48;;;9.50;99.90;;;;;;4972443;28;20084;-72
2021/12/25 01:13:26;;;;;;;275.17;123.05;;;9.50;99.90;;;;;;4972520;28;20427;-72
2021/12/25 01:39:22;;;;;;;240.18;111.70;;;9.30;99.90;;;;;;4969693;28;20034;-72
2021/12/25 01:49:48;;;;;;;226.07;112.47;;;9.20;99.90;;;;;;4971352;28;20083;-72
2021/12/25 01:52:14;;;;;;;234.02;110.38;;;9.10;99.90;;;;;;4971862;28;20101;-73
2021/12/25 01:54:40;;;;;;;222.18;104.00;;;9.20;99.90;;;;;;4972118;28;20038;-73
2021/12/25 01:57:05;;;;;;;197.20;95.32;;;9.20;99.90;;;;;;4971903;28;20041;-73
2021/12/25 01:59:31;;;;;;;173.90;84.13;;;9.10;99.90;;;;;;4971666;28;20149;-73
2021/12/25 02:01:57;;;;;;;160.65;74.07;;;9.10;99.90;;;;;;4972034;28;20359;-73
2021/12/25 02:04:23;;;;;;;100.25;44.50;;;9.10;99.90;;;;;;4972270;28;20029;-73
2021/12/25 02:06:49;;;;;;;145.45;66.60;;;9.20;99.90;;;;;;4971621;28;20031;-73
2021/12/25 02:09:16;;;;;;;122.75;57.20;;;9.20;99.90;;;;;;4971951;28;20029;-73
2021/12/25 02:11:42;;;;;;;112.00;53.03;;;9.20;99.90;;;;;;4972310;28;20072;-73
2021/12/25 02:14:08;;;;;;;73.93;31.38;;;9.10;99.90;;;;;;4971063;28;20039;-73
2021/12/25 02:16:50;;;;;;;71.05;31.00;;;9.20;99.90;;;;;;4969289;28;20031;-73
2021/12/25 02:19:30;;;;;;;81.63;37.50;;;9.30;99.90;;;;;;4969608;28;20073;-74
2021/12/25 02:21:58;;;;;;;54.28;23.60;;;9.40;99.90;;;;;;4969059;28;20451;-73
2021/12/25 02:24:24;;;;;;;53.50;19.75;;;9.40;99.90;;;;;;4971663;28;20102;-73
2021/12/25 02:26:50;;;;;;;47.00;21.10;;;9.50;99.90;;;;;;4971988;28;20023;-73
2021/12/25 02:29:16;;;;;;;50.78;23.58;;;9.50;99.90;;;;;;4971720;28;20035;-74
2021/12/25 02:31:41;;;;;;;49.95;23.48;;;9.50;99.90;;;;;;4971399;28;20105;-73
2021/12/25 02:34:07;;;;;;;49.78;20.80;;;9.40;99.90;;;;;;4971444;28;20050;-74
2021/12/25 02:36:33;;;;;;;47.20;21.80;;;9.40;99.90;;;;;;4971534;28;20080;-73
2021/12/25 02:38:59;;;;;;;48.22;21.77;;;9.40;99.90;;;;;;4971208;28;20462;-73
2021/12/25 02:41:25;;;;;;;131.27;54.47;;;9.40;99.90;;;;;;4970187;28;20529;-73
2021/12/25 02:43:51;;;;;;;191.82;81.95;;;9.40;99.90;;;;;;4971353;28;20033;-73
2021/12/25 02:46:17;;;;;;;154.50;73.97;;;9.30;99.90;;;;;;4971211;28;20033;-73
2021/12/25 02:48:43;;;;;;;156.52;74.82;;;9.30;99.90;;;;;;4971241;28;20102;-73
2021/12/25 02:51:11;;;;;;;154.23;73.40;;;9.30;99.90;;;;;;4971205;28;20380;-73
2021/12/25 02:53:38;;;;;;;169.15;78.63;;;9.20;99.90;;;;;;4971225;28;20110;-73
2021/12/25 02:56:04;;;;;;;168.25;77.55;;;9.20;99.90;;;;;;4971151;28;20461;-72
2021/12/25 02:58:30;;;;;;;154.63;71.95;;;9.10;99.90;;;;;;4970831;28;20031;-72
2021/12/25 03:01:00;;;;;;;128.65;59.30;;;9.10;99.90;;;;;;4971322;28;20083;-73
2021/12/25 03:03:27;;;;;;;108.47;50.97;;;9.10;99.90;;;;;;4970824;28;20095;-73
2021/12/25 03:05:53;;;;;;;132.38;60.50;;;9.10;99.90;;;;;;4971096;28;20085;-73
2021/12/25 03:08:19;;;;;;;135.48;59.83;;;9.10;99.90;;;;;;4971093;28;20027;-72
2021/12/25 03:10:46;;;;;;;120.97;55.03;;;9.00;99.90;;;;;;4971011;28;20023;-72
2021/12/25 03:15:51;;;;;;;85.38;35.50;;;9.00;99.90;;;;;;4970962;28;20035;-72
2021/12/25 03:18:27;;;;;;;144.93;71.20;;;9.00;99.90;;;;;;4979169;28;20408;-73
2021/12/25 03:20:58;;;;;;;73.07;34.17;;;9.10;99.90;;;;;;4970984;28;20031;-72
2021/12/25 03:23:26;;;;;;;76.78;32.13;;;9.10;99.90;;;;;;4970831;28;20031;-72
2021/12/25 03:25:54;;;;;;;63.05;27.17;;;9.10;99.90;;;;;;4969387;28;20382;-73
2021/12/25 03:28:23;;;;;;;41.75;18.50;;;9.20;99.90;;;;;;4970839;28;20030;-73
2021/12/25 03:30:49;;;;;;;29.58;14.43;;;9.30;99.90;;;;;;4970968;28;20480;-73
2021/12/25 03:33:18;;;;;;;43.58;19.40;;;9.30;99.90;;;;;;4967954;28;20035;-73
2021/12/25 03:35:44;;;;;;;23.33;11.85;;;9.30;99.90;;;;;;4970479;28;20497;-73
2021/12/25 03:38:13;;;;;;;23.20;11.65;;;9.40;99.90;;;;;;4970264;28;20118;-73
2021/12/25 03:40:40;;;;;;;46.45;22.70;;;9.30;99.90;;;;;;4970440;28;20027;-73
2021/12/25 03:43:06;;;;;;;46.70;23.33;;;9.30;99.90;;;;;;4970582;28;20815;-73
2021/12/25 03:45:33;;;;;;;50.75;24.00;;;9.30;99.90;;;;;;4970454;28;20030;-73
2021/12/25 03:58:32;;;;;;;17.42;9.02;;;9.40;99.90;;;;;;4970883;28;20069;-73
2021/12/25 04:01:10;;;;;;;19.90;10.60;;;9.40;99.90;;;;;;4970874;28;20031;-73
2021/12/25 04:03:47;;;;;;;26.42;11.40;;;9.30;99.90;;;;;;4970471;28;20027;-73
2021/12/25 04:06:12;;;;;;;19.35;8.70;;;9.40;99.90;;;;;;4970742;28;20039;-73
2021/12/25 04:08:43;;;;;;;15.45;7.80;;;9.40;99.90;;;;;;4970404;28;20366;-73
2021/12/25 04:11:14;;;;;;;28.60;12.77;;;9.30;99.90;;;;;;4970963;28;20066;-73
2021/12/25 04:13:40;;;;;;;33.72;16.55;;;9.40;99.90;;;;;;4970464;28;20027;-73
2021/12/25 04:16:06;;;;;;;51.47;25.30;;;9.40;99.90;;;;;;4970600;28;20046;-73
2021/12/25 04:18:32;;;;;;;36.60;18.23;;;9.40;99.90;;;;;;4971070;28;20152;-73
2021/12/25 04:20:58;;;;;;;32.15;13.45;;;9.40;99.90;;;;;;4970202;28;20088;-73
2021/12/25 04:23:27;;;;;;;20.00;11.10;;;9.40;99.90;;;;;;4970370;28;20035;-73
2021/12/25 04:25:58;;;;;;;18.25;9.35;;;9.30;99.90;;;;;;4970153;28;20389;-73
2021/12/25 05:03:43;;;;;;;31.30;14.00;;;9.30;99.90;;;;;;4973273;28;20049;-74
2021/12/25 05:06:08;;;;;;;11.60;5.63;;;9.30;99.90;;;;;;4973527;28;20521;-73
2021/12/25 05:08:34;;;;;;;13.10;6.53;;;9.20;99.90;;;;;;4972911;28;20042;-73
2021/12/25 05:11:00;;;;;;;10.60;5.28;;;9.20;99.90;;;;;;4973340;28;20038;-73
2021/12/25 05:13:26;;;;;;;12.13;6.15;;;9.20;99.90;;;;;;4973129;28;20448;-73
2021/12/25 05:15:52;;;;;;;14.65;8.02;;;9.20;99.90;;;;;;4972983;28;20031;-73
2021/12/25 05:18:18;;;;;;;26.58;13.55;;;9.20;99.90;;;;;;4973179;28;20050;-73
2021/12/25 05:20:44;;;;;;;39.13;20.52;;;9.10;99.90;;;;;;4973419;28;20035;-73
2021/12/25 05:23:10;;;;;;;26.30;15.73;;;9.10;99.90;;;;;;4973160;28;20030;-73
2021/12/25 05:25:36;;;;;;;33.78;16.40;;;9.10;99.90;;;;;;4973661;28;20385;-73
2021/12/25 05:28:02;;;;;;;46.72;19.15;;;9.20;99.90;;;;;;4973323;28;20027;-73
2021/12/25 05:30:29;;;;;;;30.02;14.02;;;9.20;99.90;;;;;;4972661;28;20085;-73
2021/12/25 05:32:55;;;;;;;19.85;10.35;;;9.10;99.90;;;;;;4973959;28;20061;-73
2021/12/25 05:35:21;;;;;;;13.18;6.50;;;9.20;99.90;;;;;;4973699;28;20038;-73
2021/12/25 05:37:47;;;;;;;9.07;5.30;;;9.20;99.90;;;;;;4972664;28;20058;-73
2021/12/25 05:40:13;;;;;;;79.13;39.28;;;9.10;99.90;;;;;;4973046;28;20058;-73
2021/12/25 05:42:39;;;;;;;92.65;42.85;;;9.20;99.90;;;;;;4973883;28;20031;-73
2021/12/25 05:45:06;;;;;;;175.77;77.22;;;9.10;99.90;;;;;;4973210;28;20023;-73
2021/12/25 05:47:32;;;;;;;181.95;91.30;;;9.20;99.90;;;;;;4973062;28;20038;-73
2021/12/25 05:49:59;;;;;;;58.55;33.65;;;9.20;99.90;;;;;;4972460;28;20027;-73
2021/12/25 05:52:25;;;;;;;30.63;17.95;;;9.30;99.90;;;;;;4973203;28;20496;-73
2021/12/25 05:54:51;;;;;;;28.63;15.48;;;9.20;99.90;;;;;;4973062;28;20100;-73
2021/12/25 05:57:17;;;;;;;34.63;16.20;;;9.20;99.90;;;;;;4973475;28;20033;-73
2021/12/25 05:59:43;;;;;;;25.90;12.88;;;9.20;99.90;;;;;;4973403;28;20106;-73
2021/12/25 06:02:09;;;;;;;35.97;16.58;;;9.30;99.90;;;;;;4972948;28;20177;-73
2021/12/25 06:04:35;;;;;;;30.88;14.93;;;9.30;99.90;;;;;;4973216;28;20031;-72
2021/12/25 06:07:02;;;;;;;27.77;11.43;;;9.20;99.90;;;;;;4973285;28;20481;-73
2021/12/25 06:09:28;;;;;;;21.42;9.88;;;9.30;99.90;;;;;;4972972;28;20035;-72
2021/12/25 06:11:53;;;;;;;17.52;8.50;;;9.30;99.90;;;;;;4973022;28;20027;-73
2021/12/25 06:14:21;;;;;;;62.72;24.48;;;9.40;99.90;;;;;;4972863;28;20023;-72
2021/12/25 06:16:48;;;;;;;65.25;26.30;;;9.40;99.90;;;;;;4972869;28;20385;-72
2021/12/25 06:19:15;;;;;;;89.55;37.97;;;9.40;99.90;;;;;;4972902;28;20039;-72
2021/12/25 06:21:41;;;;;;;64.97;28.85;;;9.40;99.90;;;;;;4972491;28;20055;-72
2021/12/25 06:24:07;;;;;;;91.53;39.28;;;9.50;99.90;;;;;;4971831;28;20106;-73
2021/12/25 06:26:35;;;;;;;53.17;23.83;;;9.40;99.90;;;;;;4972082;28;20035;-72
2021/12/25 06:29:01;;;;;;;72.40;30.17;;;9.40;99.90;;;;;;4972609;28;20027;-73
2021/12/25 06:31:27;;;;;;;32.85;18.70;;;9.40;99.90;;;;;;4972402;28;20080;-73
2021/12/25 06:33:53;;;;;;;38.45;22.25;;;9.40;99.90;;;;;;4972427;28;20072;-73
2021/12/25 06:36:19;;;;;;;52.35;26.65;;;9.40;99.90;;;;;;4972031;28;20038;-72
2021/12/25 06:38:45;;;;;;;48.00;26.30;;;9.50;99.90;;;;;;4972567;28;20089;-73
2021/12/25 06:41:12;;;;;;;33.75;18.08;;;9.60;99.90;;;;;;4972346;28;20110;-72
2021/12/25 06:43:39;;;;;;;71.97;35.78;;;9.60;99.90;;;;;;4983122;28;20491;-73
2021/12/25 06:46:05;;;;;;;112.38;52.88;;;9.60;99.90;;;;;;4972484;28;20037;-73
2021/12/25 06:48:31;;;;;;;141.25;61.80;;;9.60;99.90;;;;;;4972171;28;20457;-73
2021/12/25 06:50:57;;;;;;;88.50;39.28;;;9.60;99.90;;;;;;4971981;28;20023;-73
2021/12/25 06:53:23;;;;;;;108.45;44.63;;;9.60;99.90;;;;;;4971662;28;20473;-73
2021/12/25 06:55:49;;;;;;;83.32;46.50;;;9.50;99.90;;;;;;4971846;28;20073;-73
2021/12/25 06:58:15;;;;;;;74.85;36.83;;;9.50;99.90;;;;;;4972211;28;20027;-73
2021/12/25 07:00:41;;;;;;;90.90;45.13;;;9.50;99.90;;;;;;4971768;28;20458;-73
2021/12/25 07:03:06;;;;;;;114.90;56.95;;;9.40;99.90;;;;;;4971557;28;20023;-73
2021/12/25 07:05:32;;;;;;;146.38;80.07;;;9.40;99.90;;;;;;4971855;28;20031;-72
2021/12/25 07:07:58;;;;;;;105.03;54.75;;;9.40;99.90;;;;;;4972199;28;20049;-73
2021/12/25 07:10:24;;;;;;;122.90;68.82;;;9.40;99.90;;;;;;4971806;28;20390;-72
2021/12/25 07:12:53;;;;;;;92.10;48.72;;;9.40;99.90;;;;;;4972075;28;20055;-73
2021/12/25 07:15:19;;;;;;;95.68;50.70;;;9.30;99.90;;;;;;4971409;28;20035;-72
2021/12/25 07:17:45;;;;;;;91.68;51.25;;;9.30;99.90;;;;;;4972264;28;20472;-73
2021/12/25 07:20:11;;;;;;;91.93;49.25;;;9.30;99.90;;;;;;4972508;28;20549;-73
2021/12/25 07:22:37;;;;;;;105.50;55.38;;;9.30;99.90;;;;;;4972176;28;20065;-73
2021/12/25 07:25:05;;;;;;;132.07;68.95;;;9.30;99.90;;;;;;4972027;28;20114;-73
2021/12/25 07:27:31;;;;;;;122.28;68.70;;;9.30;99.90;;;;;;4972067;28;20446;-73
2021/12/25 07:29:57;;;;;;;241.20;126.50;;;9.30;99.90;;;;;;4971811;28;20058;-73
2021/12/25 07:32:23;;;;;;;254.50;131.15;;;9.30;99.90;;;;;;4971789;28;20216;-73
2021/12/25 07:34:50;;;;;;;179.43;95.68;;;9.30;99.90;;;;;;4972101;28;20031;-73
2021/12/25 07:37:17;;;;;;;116.25;60.47;;;9.30;99.90;;;;;;4972160;28;20027;-72
2021/12/25 07:39:44;;;;;;;108.25;54.50;;;9.30;99.90;;;;;;4971756;28;20031;-73
2021/12/25 07:42:11;;;;;;;105.85;53.47;;;9.30;99.90;;;;;;4971620;28;20023;-73
2021/12/25 07:44:37;;;;;;;93.30;48.25;;;9.40;99.90;;;;;;4972186;28;20108;-73
2021/12/25 07:47:08;;;;;;;81.97;44.78;;;9.40;99.90;;;;;;4971913;28;20102;-73
2021/12/25 07:49:34;;;;;;;93.17;47.50;;;9.40;99.90;;;;;;4971897;28;20035;-73
2021/12/25 07:52:00;;;;;;;175.07;89.00;;;9.50;99.90;;;;;;4971870;28;20249;-72
2021/12/25 07:54:25;;;;;;;171.57;87.07;;;9.60;99.90;;;;;;4971600;28;20089;-72
2021/12/25 07:56:51;;;;;;;152.07;76.90;;;9.80;99.90;;;;;;4971588;28;20042;-73
2021/12/25 07:59:17;;;;;;;155.52;80.13;;;9.90;99.90;;;;;;4971620;28;20420;-73
2021/12/25 08:01:43;;;;;;;189.02;93.80;;;10.10;99.90;;;;;;4971792;28;20029;-73
2021/12/25 08:04:10;;;;;;;190.43;95.90;;;10.20;99.90;;;;;;4971275;28;20023;-73
2021/12/25 08:06:36;;;;;;;129.13;62.13;;;10.20;99.90;;;;;;4971645;28;20039;-73
2021/12/25 08:09:04;;;;;;;110.25;57.10;;;10.30;99.90;;;;;;4971296;28;20030;-73
2021/12/25 08:11:30;;;;;;;181.00;88.20;;;10.40;99.90;;;;;;4971826;28;20039;-73
2021/12/25 08:13:57;;;;;;;148.07;74.10;;;10.40;99.90;;;;;;4974555;28;20054;-73
2021/12/25 08:16:23;;;;;;;136.05;72.47;;;10.40;99.90;;;;;;4974580;28;20042;-72
2021/12/25 08:18:49;;;;;;;135.30;70.13;;;10.40;99.90;;;;;;4974999;28;20027;-72
2021/12/25 08:21:15;;;;;;;165.98;85.88;;;10.40;99.90;;;;;;4974807;28;20113;-72
2021/12/25 08:23:41;;;;;;;291.20;151.13;;;10.40;99.90;;;;;;4974533;28;20035;-73
2021/12/25 08:26:08;;;;;;;280.80;143.95;;;10.50;99.90;;;;;;4974658;28;20031;-73
2021/12/25 08:28:34;;;;;;;323.83;165.25;;;10.50;99.90;;;;;;4974790;28;20049;-73
2021/12/25 08:31:02;;;;;;;329.95;171.75;;;10.60;99.90;;;;;;4973595;28;20051;-73
2021/12/25 08:33:28;;;;;;;322.83;183.55;;;10.80;99.90;;;;;;4974661;28;20108;-73
2021/12/25 08:35:54;;;;;;;321.15;186.18;;;10.80;99.90;;;;;;4974472;28;20473;-73
2021/12/25 08:38:20;;;;;;;377.27;220.70;;;10.90;99.90;;;;;;4974567;28;20027;-73
2021/12/25 08:40:46;;;;;;;349.13;204.68;;;10.90;99.90;;;;;;4974190;28;20034;-73
2021/12/25 08:43:15;;;;;;;355.63;212.02;;;11.00;99.90;;;;;;4973720;28;20500;-73
2021/12/25 08:45:44;;;;;;;394.65;232.65;;;11.00;99.90;;;;;;4974419;28;20039;-73
2021/12/25 08:48:19;;;;;;;374.02;226.40;;;11.00;99.90;;;;;;4974299;28;20393;-73
2021/12/25 08:50:55;;;;;;;354.33;206.65;;;11.00;99.90;;;;;;4974643;28;20062;-72
2021/12/25 08:53:23;;;;;;;345.23;199.20;;;11.00;99.90;;;;;;4974276;28;20026;-73
2021/12/25 08:55:50;;;;;;;347.48;202.68;;;11.00;99.90;;;;;;4974118;28;20385;-73
2021/12/25 08:58:17;;;;;;;325.08;191.32;;;11.10;99.90;;;;;;4974607;28;20031;-73
2021/12/25 09:00:44;;;;;;;341.35;196.48;;;11.20;99.90;;;;;;4974209;28;20058;-73
2021/12/25 09:03:11;;;;;;;348.45;200.98;;;11.20;99.90;;;;;;4974357;28;20023;-73
2021/12/25 09:05:36;;;;;;;377.75;215.05;;;11.30;99.90;;;;;;4974346;28;20101;-73
2021/12/25 09:08:02;;;;;;;363.23;207.50;;;11.40;99.90;;;;;;4974166;28;20152;-73
2021/12/25 09:10:29;;;;;;;339.67;190.07;;;11.40;99.90;;;;;;4974182;28;20031;-73
2021/12/25 09:12:56;;;;;;;460.88;269.10;;;11.50;99.90;;;;;;4973969;28;20035;-73
2021/12/25 09:15:23;;;;;;;493.90;284.17;;;11.50;99.90;;;;;;4973854;28;20038;-73
2021/12/25 09:17:49;;;;;;;461.30;256.38;;;11.50;99.90;;;;;;4973910;28;20027;-72
2021/12/25 09:20:19;;;;;;;304.52;163.85;;;11.50;99.90;;;;;;4973717;28;20038;-73
2021/12/25 09:22:45;;;;;;;372.88;217.27;;;11.50;99.90;;;;;;4974117;28;20019;-73
2021/12/25 09:25:11;;;;;;;448.52;254.77;;;11.50;99.90;;;;;;4973775;28;20145;-73
2021/12/25 09:27:37;;;;;;;425.23;232.02;;;11.40;99.90;;;;;;4973600;28;20080;-73
2021/12/25 09:30:04;;;;;;;346.60;165.20;;;11.40;99.90;;;;;;4973405;28;20030;-73
2021/12/25 09:32:30;;;;;;;381.85;193.73;;;11.40;99.90;;;;;;4973581;28;20054;-73
2021/12/25 09:35:00;;;;;;;311.77;160.18;;;11.40;99.90;;;;;;4973059;28;20053;-73
2021/12/25 09:37:29;;;;;;;263.73;142.60;;;11.40;99.90;;;;;;4973703;28;20113;-73
2021/12/25 09:39:56;;;;;;;256.73;136.32;;;11.40;99.90;;;;;;4974026;28;20022;-73
2021/12/25 09:42:24;;;;;;;262.88;132.23;;;11.40;99.90;;;;;;4973427;28;20080;-73
2021/12/25 09:44:53;;;;;;;247.13;127.80;;;11.50;99.90;;;;;;4973724;28;20441;-73
2021/12/25 09:47:20;;;;;;;227.00;120.50;;;11.50;99.90;;;;;;4973588;28;20038;-73
2021/12/25 09:49:46;;;;;;;270.60;151.40;;;11.50;99.90;;;;;;4973566;28;20046;-73
2021/12/25 09:52:13;;;;;;;303.55;165.95;;;11.60;99.90;;;;;;4973938;28;20041;-73
2021/12/25 09:54:38;;;;;;;413.75;244.20;;;11.60;99.90;;;;;;4973472;28;20047;-73
2021/12/25 09:57:04;;;;;;;641.72;372.02;;;11.60;99.90;;;;;;4973386;28;20042;-73
2021/12/25 09:59:30;;;;;;;291.63;169.63;;;11.70;99.90;;;;;;4973512;28;20062;-73
2021/12/25 10:01:57;;;;;;;306.00;176.07;;;11.70;99.90;;;;;;4973568;28;20102;-73
2021/12/25 10:04:35;;;;;;;241.98;134.00;;;11.80;99.90;;;;;;4973479;28;20042;-73
2021/12/25 10:07:19;;;;;;;229.80;125.50;;;11.70;99.90;;;;;;4973365;28;20062;-73
2021/12/25 10:10:16;;;;;;;229.40;127.05;;;11.80;99.90;;;;;;4972932;28;20433;-73
2021/12/25 10:12:46;;;;;;;319.92;183.70;;;11.80;99.90;;;;;;5012823;28;20092;-73
2021/12/25 10:15:25;;;;;;;163.30;90.38;;;11.90;99.90;;;;;;5012912;28;20072;-73
2021/12/25 10:17:58;;;;;;;261.85;136.60;;;11.90;99.90;;;;;;5012790;28;20125;-73
2021/12/25 10:20:30;;;;;;;229.13;121.00;;;12.00;99.90;;;;;;5012929;28;20068;-73
2021/12/25 10:23:06;;;;;;;232.93;120.68;;;12.10;99.90;;;;;;5012712;28;20084;-73
2021/12/25 10:25:43;;;;;;;131.50;71.28;;;12.20;99.90;;;;;;5012823;28;20467;-73
2021/12/25 10:28:09;;;;;;;62.33;35.53;;;12.30;99.90;;;;;;5012689;28;20033;-73
2021/12/25 10:30:48;;;;;;;34.50;17.88;;;12.50;99.90;;;;;;5012610;28;20042;-73
2021/12/25 10:33:28;;;;;;;19.02;9.55;;;13.00;99.90;;;;;;5012662;28;20112;-73
2021/12/25 10:35:55;;;;;;;45.30;20.65;;;13.20;99.90;;;;;;5012258;28;20065;-73
2021/12/25 10:38:23;;;;;;;12.68;5.82;;;13.40;99.90;;;;;;5012462;28;20022;-73
2021/12/25 10:40:50;;;;;;;15.05;6.75;;;13.50;99.90;;;;;;5012416;28;20524;-73
2021/12/25 10:43:21;;;;;;;17.65;7.20;;;13.70;99.90;;;;;;5012731;28;20042;-73
2021/12/25 10:46:03;;;;;;;15.00;5.73;;;13.70;99.90;;;;;;5012599;28;20529;-73
2021/12/25 10:48:30;;;;;;;7.68;4.20;;;13.80;99.90;;;;;;5001758;28;20340;-73
2021/12/25 10:50:58;;;;;;;7.72;4.43;;;13.80;99.90;;;;;;4972458;28;20027;-73
2021/12/25 10:53:37;;;;;;;7.43;4.50;;;13.70;99.90;;;;;;4972967;28;20034;-73
2021/12/25 10:56:10;;;;;;;9.32;4.65;;;13.70;99.90;;;;;;4972718;28;20087;-73
2021/12/25 10:58:37;;;;;;;6.95;3.58;;;13.70;99.90;;;;;;4972561;28;20026;-73
2021/12/25 11:01:06;;;;;;;12.57;6.75;;;13.60;99.90;;;;;;4972609;28;20031;-73
2021/12/25 11:03:38;;;;;;;19.05;7.90;;;13.60;99.90;;;;;;4972690;28;20478;-73
2021/12/25 11:06:13;;;;;;;22.90;11.68;;;13.60;99.90;;;;;;4972703;28;20081;-73
2021/12/25 11:08:40;;;;;;;37.50;16.77;;;13.50;99.90;;;;;;4972478;28;20054;-73
2021/12/25 11:11:20;;;;;;;54.35;21.42;;;13.40;99.90;;;;;;4972672;28;20109;-73
2021/12/25 11:13:52;;;;;;;47.50;21.90;;;13.30;99.90;;;;;;4972765;28;20083;-74
2021/12/25 11:16:32;;;;;;;54.25;26.58;;;13.20;99.90;;;;;;4972341;28;20050;-73
2021/12/25 11:21:34;;;;;;;13.25;6.53;;;13.10;99.90;;;;;;4972754;28;20390;-72
2021/12/25 11:24:19;;;;;;;13.60;7.63;;;13.10;99.90;;;;;;4972129;28;20030;-72
2021/12/25 11:26:49;;;;;;;10.75;6.05;;;13.10;99.90;;;;;;4972142;28;20485;-72
2021/12/25 11:29:18;;;;;;;14.73;8.57;;;13.20;99.90;;;;;;4972270;28;20039;-72
2021/12/25 11:31:45;;;;;;;16.50;6.93;;;13.20;99.90;;;;;;4972302;28;20374;-72
2021/12/25 11:34:11;;;;;;;22.55;12.10;;;13.20;99.90;;;;;;4972180;28;20141;-73
2021/12/25 11:36:39;;;;;;;27.48;15.05;;;13.10;99.90;;;;;;4972120;28;20109;-72
2021/12/25 11:39:06;;;;;;;123.82;47.95;;;13.10;99.90;;;;;;4971936;28;20038;-72
2021/12/25 11:41:34;;;;;;;211.52;85.38;;;13.00;99.90;;;;;;4971610;28;20075;-72
2021/12/25 11:44:05;;;;;;;151.98;68.38;;;12.90;99.90;;;;;;4972076;28;20109;-72
2021/12/25 11:46:40;;;;;;;186.50;90.30;;;12.90;99.90;;;;;;4972825;28;20068;-73
2021/12/25 11:49:12;;;;;;;163.52;76.45;;;12.90;99.90;;;;;;4975629;28;20377;-73
2021/12/25 11:51:40;;;;;;;161.48;79.78;;;12.90;99.90;;;;;;4975426;28;20063;-73
2021/12/25 11:54:56;;;;;;;147.57;76.45;;;12.80;99.90;;;;;;4975095;28;20386;-73
2021/12/25 11:59:50;;;;;;;175.90;90.40;;;12.80;99.90;;;;;;4975455;28;20481;-73
2021/12/25 12:02:34;;;;;;;;;;;12.90;99.90;;;;;;4975619;28;20049;-73
2021/12/25 12:05:25;;;;;;;265.20;126.07;;;12.80;99.90;;;;;;4975333;28;19913;-72
2021/12/25 12:07:56;;;;;;;397.50;198.63;;;12.80;99.90;;;;;;4975137;28;20030;-72
2021/12/25 12:10:45;;;;;;;473.80;259.27;;;12.70;99.90;;;;;;4975030;28;20027;-72
2021/12/25 12:13:28;;;;;;;427.20;242.73;;;12.70;99.90;;;;;;4974909;28;20460;-72
2021/12/25 12:15:57;;;;;;;486.65;272.48;;;12.70;99.90;;;;;;4974677;28;20039;-72
2021/12/25 12:18:26;;;;;;;436.23;247.43;;;12.60;99.90;;;;;;4975073;28;20118;-72
2021/12/25 12:20:59;;;;;;;406.02;242.10;;;12.60;99.90;;;;;;4975321;28;20035;-72
2021/12/25 12:23:49;;;;;;;446.85;254.07;;;12.60;99.90;;;;;;4974988;28;20038;-72
2021/12/25 12:26:44;;;;;;;402.90;235.35;;;12.60;99.90;;;;;;4975122;28;20042;-72
2021/12/25 12:29:10;;;;;;;353.35;206.05;;;12.50;99.90;;;;;;4974728;28;20417;-73
2021/12/25 12:31:39;;;;;;;353.55;206.25;;;12.50;99.90;;;;;;4974715;28;20084;-73
2021/12/25 12:34:29;;;;;;;448.85;268.52;;;12.50;99.90;;;;;;4974810;28;20381;-73
2021/12/25 12:37:13;;;;;;;423.05;256.67;;;12.50;99.90;;;;;;4974635;28;20462;-73
2021/12/25 12:39:40;;;;;;;515.72;307.75;;;12.40;99.90;;;;;;4974740;28;20072;-73
2021/12/25 12:42:10;;;;;;;471.42;283.40;;;12.40;99.90;;;;;;4974600;28;20038;-72
2021/12/25 12:44:37;;;;;;;561.70;323.17;;;12.40;99.90;;;;;;4974209;28;20385;-72
2021/12/25 12:47:18;;;;;;;553.53;323.08;;;12.40;99.90;;;;;;4974281;28;20103;-73
2021/12/25 12:49:50;;;;;;;521.03;313.35;;;12.40;99.90;;;;;;4974654;28;20031;-73
2021/12/25 12:52:18;;;;;;;581.20;337.80;;;12.40;99.90;;;;;;4974622;28;20454;-72
2021/12/25 12:54:51;;;;;;;630.25;364.30;;;12.30;99.90;;;;;;4974247;28;20055;-72
2021/12/25 12:57:31;;;;;;;547.10;316.92;;;12.40;99.90;;;;;;4974022;28;20087;-72
2021/12/25 13:00:18;;;;;;;570.85;341.38;;;12.30;99.90;;;;;;4974389;28;20072;-72
2021/12/25 13:02:50;;;;;;;515.35;310.00;;;12.30;99.90;;;;;;4974239;28;20102;-73
2021/12/25 13:05:24;;;;;;;495.27;297.25;;;12.30;99.90;;;;;;4974641;28;20069;-73
2021/12/25 13:07:53;;;;;;;500.83;304.05;;;12.30;99.90;;;;;;4974078;28;20448;-73
2021/12/25 13:10:27;;;;;;;478.75;295.35;;;12.20;99.90;;;;;;4974307;28;20092;-73
2021/12/25 13:13:05;;;;;;;452.48;279.85;;;12.10;99.90;;;;;;4973918;28;20077;-73
2021/12/25 13:15:33;;;;;;;422.50;254.60;;;12.10;99.90;;;;;;4973914;28;20035;-73
2021/12/25 13:18:01;;;;;;;431.65;256.25;;;12.10;99.90;;;;;;4974030;28;20057;-73
2021/12/25 13:20:52;;;;;;;393.98;229.35;;;12.10;99.90;;;;;;4974258;28;20022;-73
2021/12/25 13:23:22;;;;;;;385.85;227.70;;;12.00;99.90;;;;;;4978302;28;20489;-73
2021/12/25 13:25:57;;;;;;;348.10;207.10;;;12.00;99.90;;;;;;4973611;28;20477;-73
2021/12/25 13:28:26;;;;;;;349.20;193.55;;;11.90;99.90;;;;;;4974075;28;20113;-73
2021/12/25 13:30:56;;;;;;;372.50;208.55;;;11.90;99.90;;;;;;4974122;28;20031;-73
2021/12/25 13:33:24;;;;;;;392.42;227.05;;;11.90;99.90;;;;;;4973861;28;20114;-73
2021/12/25 13:36:15;;;;;;;405.27;242.20;;;11.80;99.90;;;;;;4973569;28;20122;-73
2021/12/25 13:38:46;;;;;;;395.10;233.63;;;11.80;99.90;;;;;;4973779;28;20079;-73
2021/12/25 13:41:12;;;;;;;382.20;231.13;;;11.80;99.90;;;;;;4974018;28;20023;-73
2021/12/25 13:43:38;;;;;;;378.13;218.10;;;11.70;99.90;;;;;;4973767;28;20450;-73
2021/12/25 13:46:04;;;;;;;369.17;209.60;;;11.70;99.90;;;;;;4973689;28;20076;-73
2021/12/25 13:48:39;;;;;;;363.27;202.50;;;11.70;99.90;;;;;;4973733;28;20042;-73
2021/12/25 13:51:06;;;;;;;353.00;202.90;;;11.60;99.90;;;;;;4973675;28;20084;-73
2021/12/25 13:53:32;;;;;;;399.20;224.05;;;11.60;99.90;;;;;;4973375;28;20019;-72
2021/12/25 13:56:08;;;;;;;551.40;307.85;;;11.60;99.90;;;;;;4973549;28;20074;-72
2021/12/25 13:58:34;;;;;;;1266.05;659.30;;;11.50;99.90;;;;;;4973755;28;20090;-73
2021/12/25 14:00:59;;;;;;;1063.25;678.38;;;11.50;99.90;;;;;;4973146;28;20062;-73